Time;durP1;ratioP1;P1;durP2;ratioP2;P2;SDS_P1;SDS_P2;PMS_P1;PMS_P2;Temp;Humidity;BMP_temperature;BMP_pressure;BME280_temperature;BME280_humidity;BME280_pressure;Samples;Min_cycle;Max_cycle;Signal;HPM_P1;HPM_P2
2022/12/10 00:01:50;;;;;;;13.35;8.88;;;9.90;96.00;;;;;;6275592;22;20003;-79
2022/12/10 00:04:17;;;;;;;10.60;9.50;;;9.90;95.90;;;;;;6276005;22;20000;-79
2022/12/10 00:06:44;;;;;;;10.63;8.73;;;9.90;96.10;;;;;;6250023;22;20008;-78
2022/12/10 00:09:12;;;;;;;11.43;10.23;;;9.90;96.00;;;;;;6276817;22;19996;-77
2022/12/10 00:11:39;;;;;;;15.27;9.73;;;9.90;95.90;;;;;;6249319;22;20936;-77
2022/12/10 00:14:06;;;;;;;11.10;9.35;;;9.90;96.00;;;;;;6277024;22;20168;-77
2022/12/10 00:16:33;;;;;;;12.95;9.27;;;9.90;96.10;;;;;;6276858;22;20009;-77
2022/12/10 00:18:59;;;;;;;10.57;9.18;;;9.90;96.10;;;;;;6276445;22;19996;-77
2022/12/10 00:21:30;;;;;;;12.05;8.95;;;9.90;96.00;;;;;;6276622;22;20012;-79
2022/12/10 00:23:57;;;;;;;11.43;9.40;;;9.90;96.00;;;;;;6249494;22;20015;-79
2022/12/10 00:26:45;;;;;;;11.90;9.32;;;9.90;95.80;;;;;;6276580;22;20018;-79
2022/12/10 00:29:12;;;;;;;11.98;9.82;;;9.90;95.80;;;;;;6276463;22;20006;-79
2022/12/10 00:31:38;;;;;;;13.55;10.48;;;9.80;95.90;;;;;;6275974;22;20007;-79
2022/12/10 00:34:08;;;;;;;14.35;11.02;;;9.80;95.80;;;;;;6276585;22;20000;-79
2022/12/10 00:36:47;;;;;;;14.93;11.05;;;9.80;95.80;;;;;;6276663;22;20000;-80
2022/12/10 00:39:18;;;;;;;13.80;10.77;;;9.60;95.90;;;;;;6272084;22;20034;-79
2022/12/10 00:41:44;;;;;;;14.13;10.73;;;;;;;;;;6274407;22;20038;-80
2022/12/10 00:44:10;;;;;;;11.98;9.57;;;9.50;96.10;;;;;;6247983;22;20094;-79
2022/12/10 00:46:36;;;;;;;15.00;11.77;;;9.60;96.30;;;;;;6276281;22;20368;-79
2022/12/10 00:49:02;;;;;;;16.13;11.63;;;9.60;96.30;;;;;;6249179;22;20008;-78
2022/12/10 00:51:28;;;;;;;20.02;14.68;;;9.60;96.20;;;;;;6275432;22;20004;-78
2022/12/10 00:53:56;;;;;;;18.60;12.25;;;9.50;96.20;;;;;;6275786;22;20011;-80
2022/12/10 00:56:25;;;;;;;16.17;11.93;;;9.40;96.40;;;;;;6276492;22;20000;-80
2022/12/10 00:58:52;;;;;;;13.93;11.00;;;;;;;;;;6276204;22;20077;-78
2022/12/10 01:01:22;;;;;;;14.65;11.38;;;9.40;96.40;;;;;;6276082;22;20303;-79
2022/12/10 01:03:50;;;;;;;15.68;12.82;;;9.40;96.80;;;;;;6275891;22;20094;-78
2022/12/10 01:06:19;;;;;;;14.68;12.13;;;9.40;96.40;;;;;;6276223;22;20007;-78
2022/12/10 01:08:46;;;;;;;15.55;12.20;;;9.40;96.60;;;;;;6275850;22;20087;-78
2022/12/10 01:11:14;;;;;;;15.25;12.05;;;9.40;96.40;;;;;;6276054;22;20000;-78
2022/12/10 01:13:41;;;;;;;15.85;12.40;;;9.40;96.60;;;;;;6275828;22;20120;-78
2022/12/10 01:16:10;;;;;;;17.98;12.90;;;9.40;96.40;;;;;;6276522;22;20062;-79
2022/12/10 01:18:37;;;;;;;18.80;13.60;;;9.50;96.70;;;;;;6275642;22;19999;-79
2022/12/10 01:21:09;;;;;;;18.38;13.98;;;9.50;96.60;;;;;;6275486;22;20015;-79
2022/12/10 01:23:36;;;;;;;19.77;14.88;;;9.50;96.70;;;;;;6275685;22;20053;-78
2022/12/10 01:26:04;;;;;;;21.88;15.30;;;9.50;96.70;;;;;;6275787;22;20003;-79
2022/12/10 01:28:32;;;;;;;21.25;15.73;;;9.50;96.70;;;;;;6248266;22;20014;-79
2022/12/10 01:31:03;;;;;;;28.83;17.05;;;9.50;96.70;;;;;;6275037;22;20011;-79
2022/12/10 01:33:29;;;;;;;21.98;15.57;;;9.50;96.70;;;;;;6275770;22;20322;-79
2022/12/10 01:35:55;;;;;;;25.52;15.75;;;9.50;96.70;;;;;;6275455;22;20075;-79
2022/12/10 01:38:20;;;;;;;23.52;15.77;;;9.50;96.80;;;;;;6275722;22;20023;-79
2022/12/10 01:40:47;;;;;;;21.50;14.07;;;9.50;96.80;;;;;;6274531;22;20004;-79
2022/12/10 01:43:15;;;;;;;19.52;13.70;;;9.50;97.00;;;;;;6275989;22;20000;-79
2022/12/10 01:45:40;;;;;;;18.73;14.55;;;9.50;96.80;;;;;;6276010;22;20669;-79
2022/12/10 01:48:07;;;;;;;17.90;12.98;;;9.50;96.70;;;;;;6276054;22;19999;-79
2022/12/10 01:50:32;;;;;;;17.77;13.32;;;9.50;97.00;;;;;;6275538;22;20058;-79
2022/12/10 01:52:58;;;;;;;16.60;13.27;;;9.50;96.70;;;;;;6275664;22;20000;-80
2022/12/10 01:55:56;;;;;;;14.88;10.98;;;9.40;96.60;;;;;;6274782;22;20007;-78
2022/12/10 01:58:22;;;;;;;16.05;12.20;;;9.40;96.90;;;;;;6192509;22;20007;-78
2022/12/10 02:01:18;;;;;;;15.40;12.15;;;9.40;96.90;;;;;;6248295;22;20073;-78
2022/12/10 02:04:14;;;;;;;16.00;12.27;;;9.50;96.80;;;;;;6247836;22;20430;-81
2022/12/10 02:07:03;;;;;;;14.35;11.98;;;9.50;96.50;;;;;;6275192;22;20000;-79
2022/12/10 02:09:41;;;;;;;13.57;10.98;;;9.50;96.70;;;;;;6248476;22;20014;-79
2022/12/10 02:12:31;;;;;;;13.95;11.23;;;9.50;96.70;;;;;;6275168;22;20074;-78
2022/12/10 02:15:00;;;;;;;15.23;11.93;;;9.60;96.40;;;;;;6275490;22;20010;-79
2022/12/10 02:17:42;;;;;;;16.95;13.50;;;9.60;96.50;;;;;;6274512;22;20322;-78
2022/12/10 02:20:14;;;;;;;16.75;12.55;;;9.50;96.40;;;;;;6275524;22;20445;-78
2022/12/10 02:22:50;;;;;;;16.17;12.95;;;9.50;96.50;;;;;;6275038;22;20007;-79
2022/12/10 02:25:20;;;;;;;16.80;12.43;;;9.50;96.60;;;;;;6275396;22;20027;-79
2022/12/10 02:28:11;;;;;;;15.40;12.55;;;9.50;96.60;;;;;;6275660;22;20004;-80
2022/12/10 02:30:40;;;;;;;15.65;11.98;;;9.60;96.50;;;;;;6275410;22;20007;-80
2022/12/10 02:33:07;;;;;;;15.88;12.93;;;9.60;96.50;;;;;;6275955;22;20050;-80
2022/12/10 02:35:38;;;;;;;17.90;12.45;;;9.60;96.70;;;;;;6276045;22;20083;-80
2022/12/10 02:38:31;;;;;;;15.73;12.55;;;9.70;96.70;;;;;;6275552;22;20008;-80
2022/12/10 02:41:06;;;;;;;14.93;12.32;;;9.70;96.60;;;;;;6274365;22;20007;-80
2022/12/10 02:43:33;;;;;;;15.93;12.98;;;9.70;96.30;;;;;;6274992;22;20058;-78
2022/12/10 02:46:02;;;;;;;18.42;12.52;;;9.70;96.30;;;;;;6275630;22;20007;-78
2022/12/10 02:48:29;;;;;;;20.27;14.52;;;9.70;96.50;;;;;;6275091;22;20042;-78
2022/12/10 02:50:54;;;;;;;16.20;12.60;;;9.60;96.30;;;;;;6275844;22;20010;-78
2022/12/10 02:53:20;;;;;;;19.10;13.52;;;9.60;96.40;;;;;;6275230;22;19999;-77
2022/12/10 02:56:12;;;;;;;14.00;11.43;;;9.60;96.70;;;;;;6248447;22;20007;-78
2022/12/10 02:59:10;;;;;;;18.48;14.18;;;9.60;96.50;;;;;;6257825;22;20004;-79
2022/12/10 03:01:46;;;;;;;14.30;10.60;;;9.50;96.50;;;;;;6275579;22;20004;-81
2022/12/10 03:04:24;;;;;;;15.15;11.90;;;9.50;96.60;;;;;;6275828;22;20000;-79
2022/12/10 03:06:57;;;;;;;15.25;12.23;;;9.60;96.50;;;;;;6275067;22;19999;-80
2022/12/10 03:09:34;;;;;;;14.25;11.70;;;9.60;96.70;;;;;;6275055;22;20000;-80
2022/12/10 03:12:08;;;;;;;19.08;14.25;;;9.60;96.60;;;;;;6247987;22;20318;-80
2022/12/10 03:14:34;;;;;;;18.27;13.32;;;9.60;96.30;;;;;;6275038;22;20007;-80
2022/12/10 03:17:02;;;;;;;14.18;11.80;;;9.60;96.50;;;;;;6275500;22;20336;-79
2022/12/10 03:19:42;;;;;;;16.40;12.45;;;9.50;96.30;;;;;;6274786;22;20340;-80
2022/12/10 03:22:11;;;;;;;16.08;11.60;;;9.50;96.40;;;;;;6275614;22;20000;-79
2022/12/10 03:24:38;;;;;;;14.32;11.07;;;9.40;96.40;;;;;;6274837;22;20023;-79
2022/12/10 03:27:06;;;;;;;11.95;10.35;;;9.40;96.80;;;;;;6275457;22;20000;-79
2022/12/10 03:29:38;;;;;;;14.27;11.38;;;9.40;96.70;;;;;;6275906;22;20000;-79
2022/12/10 03:32:04;;;;;;;13.05;10.57;;;9.50;96.70;;;;;;6277489;22;20019;-80
2022/12/10 03:34:31;;;;;;;15.13;11.77;;;9.50;96.70;;;;;;6277115;22;20414;-79
2022/12/10 03:36:58;;;;;;;13.45;10.63;;;9.60;96.70;;;;;;6276953;22;20443;-80
2022/12/10 03:39:24;;;;;;;13.00;11.15;;;9.60;96.60;;;;;;6224551;22;20092;-79
2022/12/10 03:41:49;;;;;;;12.38;10.32;;;9.60;96.50;;;;;;6276462;22;20011;-80
2022/12/10 03:44:30;;;;;;;13.63;11.50;;;9.50;96.50;;;;;;6276834;22;20334;-80
2022/12/10 03:46:56;;;;;;;13.73;11.15;;;9.50;96.50;;;;;;6276949;22;20075;-82
2022/12/10 03:49:22;;;;;;;13.43;11.32;;;9.60;96.60;;;;;;6276839;22;20410;-80
2022/12/10 03:51:47;;;;;;;12.35;10.60;;;9.50;96.60;;;;;;6276822;22;20045;-78
2022/12/10 03:54:13;;;;;;;10.65;9.55;;;9.60;96.80;;;;;;6277127;22;20314;-77
2022/12/10 03:56:39;;;;;;;12.43;10.45;;;9.50;96.40;;;;;;6276618;22;20003;-79
2022/12/10 03:59:05;;;;;;;13.20;10.95;;;;;;;;;;6276304;22;19996;-79
2022/12/10 04:01:30;;;;;;;14.55;11.57;;;9.50;96.30;;;;;;6276378;22;20003;-78
2022/12/10 04:03:56;;;;;;;15.65;12.35;;;9.40;96.50;;;;;;6276529;22;20003;-79
2022/12/10 04:06:22;;;;;;;13.00;11.18;;;9.30;96.60;;;;;;6276435;22;19999;-78
2022/12/10 04:08:48;;;;;;;15.98;12.45;;;9.40;96.70;;;;;;6276737;22;20011;-79
2022/12/10 04:11:15;;;;;;;14.43;12.30;;;9.40;96.70;;;;;;6276451;22;20434;-79
2022/12/10 04:16:27;;;;;;;15.98;12.48;;;9.30;96.70;;;;;;6276298;22;20329;-79
2022/12/10 04:19:15;;;;;;;15.43;12.50;;;9.40;96.60;;;;;;6276880;22;20027;-80
2022/12/10 04:27:20;;;;;;;17.15;13.27;;;9.50;96.50;;;;;;6276000;22;20018;-81
2022/12/10 04:29:46;;;;;;;18.75;14.10;;;9.40;96.60;;;;;;6276916;22;20004;-81
2022/12/10 04:32:12;;;;;;;17.73;13.93;;;9.50;96.60;;;;;;6276219;22;20074;-82
2022/12/10 04:34:37;;;;;;;17.67;13.82;;;9.40;96.20;;;;;;6276312;22;19996;-81
2022/12/10 04:37:04;;;;;;;18.02;14.25;;;9.40;96.40;;;;;;6275161;22;20312;-81
2022/12/10 04:39:30;;;;;;;17.48;13.40;;;9.40;96.40;;;;;;6276584;22;20002;-80
2022/12/10 04:41:56;;;;;;;16.75;13.55;;;9.40;96.40;;;;;;6276805;22;19999;-79
2022/12/10 04:44:22;;;;;;;18.20;13.98;;;9.30;96.50;;;;;;6276544;22;20046;-79
2022/12/10 04:46:48;;;;;;;18.52;14.65;;;9.40;96.50;;;;;;6275530;22;20004;-78
2022/12/10 04:49:14;;;;;;;19.45;15.20;;;9.40;96.20;;;;;;6277031;22;20035;-78
2022/12/10 04:51:40;;;;;;;19.65;15.18;;;9.30;96.40;;;;;;6276633;22;20010;-78
2022/12/10 04:54:07;;;;;;;18.92;14.05;;;9.30;96.40;;;;;;6275850;22;20536;-78
2022/12/10 04:56:33;;;;;;;19.25;14.93;;;9.30;96.30;;;;;;6275994;22;20302;-81
2022/12/10 04:59:00;;;;;;;20.40;15.25;;;9.20;96.40;;;;;;6249105;22;19999;-80
2022/12/10 05:01:26;;;;;;;18.08;14.07;;;9.20;96.50;;;;;;6275930;22;20027;-80
2022/12/10 05:03:52;;;;;;;19.85;15.20;;;9.20;96.50;;;;;;6276070;22;19999;-82
2022/12/10 05:06:20;;;;;;;19.73;14.15;;;9.20;96.40;;;;;;6275438;22;19996;-81
2022/12/10 05:08:46;;;;;;;18.13;13.88;;;9.20;96.60;;;;;;6276303;22;20054;-80
2022/12/10 05:11:18;;;;;;;22.02;14.85;;;9.30;96.60;;;;;;6276027;22;20026;-81
2022/12/10 05:13:44;;;;;;;18.30;14.80;;;9.30;96.50;;;;;;6275934;22;19999;-81
2022/12/10 05:16:13;;;;;;;18.60;14.50;;;9.30;96.50;;;;;;6249063;22;20034;-79
2022/12/10 05:18:39;;;;;;;23.40;14.52;;;9.30;96.50;;;;;;6275842;22;19996;-80
2022/12/10 05:21:07;;;;;;;21.08;15.85;;;9.30;96.50;;;;;;6276259;22;20065;-79
2022/12/10 05:23:36;;;;;;;19.98;15.63;;;9.40;96.40;;;;;;6248370;22;20086;-79
2022/12/10 05:26:07;;;;;;;19.77;15.40;;;9.40;96.40;;;;;;6275844;22;20004;-79
2022/12/10 05:28:36;;;;;;;23.30;16.13;;;9.40;96.40;;;;;;6275777;22;20027;-80
2022/12/10 05:31:02;;;;;;;23.83;17.95;;;9.40;96.30;;;;;;6276128;22;20008;-79
2022/12/10 05:33:28;;;;;;;20.45;15.65;;;9.40;96.10;;;;;;6276177;22;20003;-79
2022/12/10 05:36:01;;;;;;;22.55;17.45;;;9.30;96.10;;;;;;6275696;22;20000;-78
2022/12/10 05:38:27;;;;;;;22.95;16.70;;;;;;;;;;6248743;22;20142;-81
2022/12/10 05:40:53;;;;;;;26.02;17.95;;;9.20;96.10;;;;;;6276060;22;20484;-79
2022/12/10 05:43:19;;;;;;;22.88;16.67;;;9.20;96.00;;;;;;6248042;22;20003;-80
2022/12/10 05:45:46;;;;;;;22.92;17.45;;;9.10;96.30;;;;;;6275114;22;20003;-79
2022/12/10 05:48:14;;;;;;;23.30;17.40;;;9.00;96.30;;;;;;6275681;22;20061;-78
2022/12/10 05:50:40;;;;;;;26.40;18.98;;;9.00;96.50;;;;;;6275915;22;20035;-79
2022/12/10 05:53:06;;;;;;;24.40;17.15;;;9.00;96.50;;;;;;6274868;22;20003;-79
2022/12/10 05:55:32;;;;;;;22.52;17.75;;;9.00;96.50;;;;;;6275087;22;20089;-79
2022/12/10 05:57:59;;;;;;;22.13;17.00;;;9.10;96.60;;;;;;6275240;22;20004;-79
2022/12/10 06:00:27;;;;;;;23.10;17.50;;;9.10;96.60;;;;;;6223844;22;20042;-78
2022/12/10 06:02:53;;;;;;;25.00;18.90;;;9.10;96.70;;;;;;6275050;22;19999;-79
2022/12/10 06:05:18;;;;;;;26.40;19.42;;;9.20;96.70;;;;;;6275524;22;20007;-79
2022/12/10 06:07:44;;;;;;;23.70;17.30;;;9.20;96.50;;;;;;6275629;22;20312;-80
2022/12/10 06:10:10;;;;;;;30.08;20.05;;;9.20;96.50;;;;;;6276263;22;20083;-80
2022/12/10 06:12:37;;;;;;;32.60;22.33;;;9.10;96.60;;;;;;6275520;22;20008;-80
2022/12/10 06:15:04;;;;;;;27.00;19.60;;;9.00;96.80;;;;;;6274807;22;20023;-81
2022/12/10 06:17:30;;;;;;;26.33;19.27;;;8.90;97.00;;;;;;6248714;22;20003;-79
2022/12/10 06:19:56;;;;;;;22.63;16.17;;;8.90;97.20;;;;;;6275639;22;20381;-80
2022/12/10 06:22:23;;;;;;;27.50;19.30;;;8.80;97.00;;;;;;6249185;22;20102;-81
2022/12/10 06:24:48;;;;;;;22.73;16.67;;;9.00;97.20;;;;;;6276215;22;20042;-80
2022/12/10 06:27:14;;;;;;;24.73;17.55;;;9.00;97.10;;;;;;6275055;22;20309;-80
2022/12/10 06:29:40;;;;;;;26.48;19.17;;;9.00;97.00;;;;;;6275830;22;20035;-78
2022/12/10 06:32:06;;;;;;;23.23;17.05;;;9.00;97.00;;;;;;6275221;22;20000;-79
2022/12/10 06:34:31;;;;;;;25.92;19.15;;;9.00;97.00;;;;;;6275643;22;20003;-78
2022/12/10 06:36:57;;;;;;;24.95;17.80;;;9.00;96.80;;;;;;6274449;22;20007;-79
2022/12/10 06:39:23;;;;;;;29.70;18.10;;;9.00;97.00;;;;;;6275016;22;20495;-80
2022/12/10 06:41:48;;;;;;;29.98;20.95;;;9.00;97.00;;;;;;6275070;22;20027;-80
2022/12/10 06:44:14;;;;;;;26.52;18.17;;;8.90;96.80;;;;;;6276021;22;20004;-78
2022/12/10 06:46:41;;;;;;;26.83;19.25;;;;;;;;;;6275812;22;20011;-79
2022/12/10 06:49:07;;;;;;;25.42;18.10;;;8.90;97.00;;;;;;6247170;22;20004;-77
2022/12/10 06:51:33;;;;;;;25.35;17.23;;;8.90;97.20;;;;;;6274428;22;20422;-80
2022/12/10 06:53:59;;;;;;;23.13;15.90;;;9.00;97.00;;;;;;6275106;22;19996;-84
2022/12/10 06:56:25;;;;;;;25.48;17.15;;;9.00;97.10;;;;;;6275077;22;20076;-83
2022/12/10 06:58:51;;;;;;;22.90;16.15;;;9.10;97.30;;;;;;6274078;22;20007;-83
2022/12/10 07:01:21;;;;;;;20.77;14.85;;;9.20;97.00;;;;;;6273669;22;20003;-81
2022/12/10 07:03:52;;;;;;;21.13;15.75;;;9.20;97.00;;;;;;6275855;22;19999;-79
2022/12/10 07:06:19;;;;;;;23.70;15.35;;;9.20;97.20;;;;;;6249582;22;20032;-78
2022/12/10 07:08:45;;;;;;;21.20;15.25;;;9.30;97.30;;;;;;6276108;22;20003;-78
2022/12/10 07:11:13;;;;;;;20.23;15.25;;;9.30;97.20;;;;;;6276466;22;20094;-78
2022/12/10 07:13:41;;;;;;;18.33;14.13;;;9.40;97.10;;;;;;6276544;22;19995;-78
2022/12/10 07:16:27;;;;;;;22.42;15.60;;;9.40;96.90;;;;;;6248850;22;20004;-77
2022/12/10 07:18:54;;;;;;;19.88;14.10;;;9.50;97.00;;;;;;6273951;22;20003;-77
2022/12/10 07:21:25;;;;;;;19.92;14.55;;;9.50;96.90;;;;;;6274894;22;20027;-78
2022/12/10 07:23:53;;;;;;;18.50;14.18;;;9.60;96.90;;;;;;6275514;22;20085;-77
2022/12/10 07:26:19;;;;;;;23.25;15.88;;;9.60;96.80;;;;;;6276648;22;20080;-75
2022/12/10 07:28:45;;;;;;;21.25;14.98;;;9.60;96.80;;;;;;6275771;22;20028;-75
2022/12/10 07:31:12;;;;;;;19.33;14.98;;;;;;;;;;6275917;22;20060;-78
2022/12/10 07:33:38;;;;;;;20.60;15.35;;;9.70;96.50;;;;;;6249615;22;20337;-82
2022/12/10 07:36:42;;;;;;;21.92;16.10;;;9.70;96.60;;;;;;6276059;22;20010;-79
2022/12/10 07:39:09;;;;;;;22.55;15.75;;;9.70;96.30;;;;;;6274247;22;20050;-79
2022/12/10 07:41:35;;;;;;;21.58;16.38;;;9.70;96.50;;;;;;6275018;22;20015;-81
2022/12/10 07:44:06;;;;;;;22.13;15.77;;;9.70;96.40;;;;;;6276019;22;20003;-80
2022/12/10 07:46:32;;;;;;;21.48;14.82;;;9.70;96.60;;;;;;6274976;22;20074;-81
2022/12/10 07:49:01;;;;;;;23.45;16.88;;;9.70;96.60;;;;;;6276127;22;20031;-81
2022/12/10 07:51:27;;;;;;;24.40;14.25;;;9.80;96.50;;;;;;6276093;22;19999;-82
2022/12/10 07:53:53;;;;;;;23.67;16.92;;;9.80;96.80;;;;;;6274541;22;20365;-80
2022/12/10 07:56:19;;;;;;;22.65;15.82;;;9.90;96.70;;;;;;6276496;22;19996;-79
2022/12/10 07:58:45;;;;;;;20.98;14.98;;;9.90;96.60;;;;;;6248259;22;20045;-81
2022/12/10 08:01:22;;;;;;;20.80;16.13;;;10.00;96.80;;;;;;6275704;22;20383;-82
2022/12/10 08:03:48;;;;;;;22.05;16.10;;;10.00;96.40;;;;;;6276268;22;20434;-83
2022/12/10 08:06:16;;;;;;;22.90;15.98;;;10.00;96.40;;;;;;6268305;22;20090;-79
2022/12/10 08:08:43;;;;;;;26.15;17.40;;;10.00;96.10;;;;;;6274993;22;20299;-80
2022/12/10 08:11:10;;;;;;;24.10;16.65;;;9.90;96.30;;;;;;6273348;22;20000;-80
2022/12/10 08:13:36;;;;;;;22.63;16.92;;;9.90;96.00;;;;;;6275787;22;20023;-77
2022/12/10 08:16:05;;;;;;;25.38;16.83;;;9.90;96.20;;;;;;6274522;22;19995;-76
2022/12/10 08:18:32;;;;;;;25.20;17.67;;;9.80;96.10;;;;;;6276338;22;19999;-76
2022/12/10 08:20:58;;;;;;;23.45;17.90;;;9.80;96.30;;;;;;6275112;22;20024;-76
2022/12/10 08:23:23;;;;;;;23.15;16.63;;;9.80;96.30;;;;;;6249988;22;20008;-77
2022/12/10 08:25:49;;;;;;;25.33;18.23;;;9.70;96.30;;;;;;6275566;22;20000;-76
2022/12/10 08:28:15;;;;;;;23.85;17.08;;;9.70;96.50;;;;;;6277218;22;20434;-77
2022/12/10 08:30:46;;;;;;;26.70;18.42;;;9.70;96.50;;;;;;6276681;22;20004;-80
2022/12/10 08:33:12;;;;;;;25.63;17.55;;;9.70;96.60;;;;;;6276922;22;19996;-80
2022/12/10 08:35:41;;;;;;;23.02;16.40;;;9.70;96.60;;;;;;6276502;22;20010;-80
2022/12/10 08:38:06;;;;;;;29.75;18.10;;;9.70;96.50;;;;;;6277076;22;20004;-80
2022/12/10 08:40:32;;;;;;;29.27;19.98;;;9.70;96.70;;;;;;6276966;22;20295;-80
2022/12/10 08:42:58;;;;;;;29.48;19.65;;;9.80;96.80;;;;;;6249524;22;20719;-80
2022/12/10 08:45:24;;;;;;;27.15;18.13;;;9.70;96.80;;;;;;6275958;22;20035;-79
2022/12/10 08:47:49;;;;;;;29.58;20.35;;;9.70;96.80;;;;;;6276234;22;19995;-79
2022/12/10 08:50:15;;;;;;;26.23;17.83;;;9.80;96.90;;;;;;6276945;22;20074;-80
2022/12/10 08:52:41;;;;;;;30.10;19.05;;;9.80;96.80;;;;;;6249349;22;20007;-79
2022/12/10 08:55:07;;;;;;;28.23;19.90;;;9.80;96.80;;;;;;6276625;22;20406;-79
2022/12/10 08:57:33;;;;;;;28.48;19.27;;;9.80;96.80;;;;;;6249240;22;20425;-79
2022/12/10 08:59:58;;;;;;;29.38;19.48;;;9.80;96.90;;;;;;6276911;22;19996;-80
2022/12/10 09:02:24;;;;;;;28.38;19.67;;;9.80;96.90;;;;;;6275252;22;20014;-79
2022/12/10 09:04:50;;;;;;;26.85;19.67;;;9.90;96.90;;;;;;6275105;22;20007;-76
2022/12/10 09:07:16;;;;;;;30.23;20.17;;;9.90;96.90;;;;;;6274135;22;20006;-75
2022/12/10 09:09:42;;;;;;;27.08;19.25;;;9.90;96.90;;;;;;6275871;22;20014;-76
2022/12/10 09:12:07;;;;;;;25.85;18.45;;;9.90;96.90;;;;;;6275942;22;20334;-76
2022/12/10 09:14:33;;;;;;;25.38;18.77;;;9.90;96.70;;;;;;6249765;22;20317;-76
2022/12/10 09:17:02;;;;;;;26.17;18.40;;;10.00;96.60;;;;;;6276635;22;20078;-76
2022/12/10 09:19:28;;;;;;;27.52;18.85;;;10.00;96.80;;;;;;6275877;22;20000;-76
2022/12/10 09:21:53;;;;;;;24.45;17.02;;;10.00;96.80;;;;;;6273921;22;20334;-76
2022/12/10 09:24:19;;;;;;;28.80;19.05;;;10.00;96.70;;;;;;6275861;22;20006;-76
2022/12/10 09:26:45;;;;;;;26.70;18.38;;;10.10;96.90;;;;;;6275274;22;20406;-76
2022/12/10 09:29:10;;;;;;;29.42;19.27;;;10.10;96.90;;;;;;6276642;22;20003;-76
2022/12/10 09:31:36;;;;;;;28.25;18.05;;;10.10;96.80;;;;;;6248744;22;20039;-76
2022/12/10 09:34:02;;;;;;;28.00;19.02;;;10.20;96.80;;;;;;6276040;22;20003;-76
2022/12/10 09:36:28;;;;;;;29.23;18.80;;;10.20;96.80;;;;;;6276532;22;20067;-75
2022/12/10 09:38:53;;;;;;;30.73;18.25;;;10.20;96.80;;;;;;6276144;22;20003;-76
2022/12/10 09:41:40;;;;;;;27.90;18.40;;;10.20;96.90;;;;;;6274773;22;20007;-76
2022/12/10 09:44:15;;;;;;;33.03;20.27;;;10.20;96.70;;;;;;6275681;22;20077;-76
2022/12/10 09:46:44;;;;;;;31.33;18.83;;;10.20;96.80;;;;;;6276398;22;20011;-76
2022/12/10 09:49:21;;;;;;;32.75;19.58;;;10.20;96.80;;;;;;6276183;22;20007;-76
2022/12/10 09:51:48;;;;;;;28.30;18.42;;;10.20;96.80;;;;;;6275498;22;19999;-76
2022/12/10 09:54:34;;;;;;;38.38;22.63;;;10.20;96.90;;;;;;6275723;22;20069;-76
2022/12/10 09:57:01;;;;;;;29.70;18.55;;;10.20;97.00;;;;;;6248342;22;20003;-76
2022/12/10 09:59:39;;;;;;;39.50;22.63;;;10.10;97.10;;;;;;6276002;22;20095;-76
2022/12/10 10:02:23;;;;;;;37.95;21.15;;;10.10;97.00;;;;;;6274500;22;20489;-76
2022/12/10 10:04:52;;;;;;;42.53;24.67;;;10.10;97.50;;;;;;6274599;22;20078;-76
2022/12/10 10:07:28;;;;;;;35.25;20.85;;;10.10;97.60;;;;;;6275603;22;20383;-74
2022/12/10 10:09:58;;;;;;;40.63;21.20;;;10.10;97.60;;;;;;6275123;22;20003;-80
2022/12/10 10:12:30;;;;;;;38.53;21.80;;;10.20;97.50;;;;;;6248183;22;20411;-80
2022/12/10 10:14:56;;;;;;;31.85;19.33;;;10.20;97.50;;;;;;6248015;22;20008;-80
2022/12/10 10:17:31;;;;;;;35.95;19.60;;;10.30;97.50;;;;;;6275153;22;20276;-80
2022/12/10 10:19:56;;;;;;;31.90;17.70;;;10.30;97.50;;;;;;6248002;22;20365;-79
2022/12/10 10:22:22;;;;;;;38.88;20.75;;;10.30;97.40;;;;;;6274236;22;20027;-80
2022/12/10 10:24:48;;;;;;;37.35;20.50;;;10.30;97.40;;;;;;6274075;22;20000;-80
2022/12/10 10:27:17;;;;;;;37.35;20.70;;;10.40;97.40;;;;;;6248441;22;20030;-80
2022/12/10 10:29:49;;;;;;;40.38;20.35;;;10.40;97.40;;;;;;6275198;22;20326;-80
2022/12/10 10:32:24;;;;;;;38.45;20.17;;;10.40;97.40;;;;;;6275733;22;20430;-80
2022/12/10 10:34:55;;;;;;;40.05;20.25;;;10.50;97.40;;;;;;6275313;22;20103;-80
2022/12/10 10:37:21;;;;;;;39.72;21.30;;;10.50;97.40;;;;;;6275442;22;20003;-81
2022/12/10 10:39:50;;;;;;;37.70;20.23;;;10.60;97.40;;;;;;6277436;22;19995;-81
2022/12/10 10:42:33;;;;;;;39.78;20.27;;;10.60;97.30;;;;;;6276988;22;19996;-81
2022/12/10 10:44:59;;;;;;;35.90;20.45;;;10.70;97.30;;;;;;6277218;22;20002;-81
2022/12/10 10:47:33;;;;;;;36.10;20.58;;;10.70;97.20;;;;;;6277486;22;20067;-81
2022/12/10 10:49:59;;;;;;;40.72;20.85;;;10.70;97.20;;;;;;6275826;22;20006;-83
2022/12/10 10:52:38;;;;;;;36.08;18.40;;;10.70;97.40;;;;;;6274330;22;20381;-83
2022/12/10 10:55:04;;;;;;;35.63;18.60;;;10.70;97.30;;;;;;6276341;22;19999;-82
2022/12/10 10:57:37;;;;;;;38.13;19.42;;;10.70;97.30;;;;;;6277444;22;20069;-82
2022/12/10 11:00:22;;;;;;;41.20;20.35;;;10.70;97.40;;;;;;6249866;22;20060;-82
2022/12/10 11:02:49;;;;;;;32.65;17.92;;;10.70;97.30;;;;;;6250528;22;20015;-83
2022/12/10 11:05:25;;;;;;;30.85;17.92;;;10.70;97.20;;;;;;6276869;22;20003;-81
2022/12/10 11:08:07;;;;;;;33.00;18.60;;;10.70;97.20;;;;;;6277538;22;20027;-82
2022/12/10 11:10:33;;;;;;;34.40;18.88;;;10.70;97.40;;;;;;6250030;22;20008;-81
2022/12/10 11:13:04;;;;;;;36.88;19.40;;;10.70;97.40;;;;;;6276710;22;20306;-80
2022/12/10 11:15:39;;;;;;;39.80;20.10;;;10.60;97.30;;;;;;6249494;22;19999;-80
2022/12/10 11:18:28;;;;;;;34.20;19.02;;;10.60;97.50;;;;;;6276859;22;19999;-83
2022/12/10 11:21:11;;;;;;;29.77;17.10;;;10.60;97.60;;;;;;6256607;22;20105;-80
2022/12/10 11:23:49;;;;;;;30.33;17.60;;;10.70;97.60;;;;;;6275521;22;20487;-80
2022/12/10 11:26:36;;;;;;;29.35;15.73;;;10.70;97.30;;;;;;6276082;22;20026;-80
2022/12/10 11:29:19;;;;;;;22.73;13.82;;;10.60;97.50;;;;;;6275717;22;20000;-81
2022/12/10 11:32:03;;;;;;;21.40;13.52;;;10.60;97.50;;;;;;6276669;22;20031;-82
2022/12/10 11:34:51;;;;;;;25.05;13.88;;;10.70;97.60;;;;;;6272388;22;19999;-81
2022/12/10 11:37:17;;;;;;;24.30;14.73;;;;;;;;;;6276164;22;20076;-80
2022/12/10 11:40:33;;;;;;;28.02;16.05;;;10.80;97.40;;;;;;6276974;22;20041;-80
2022/12/10 11:43:17;;;;;;;26.23;15.35;;;10.70;97.50;;;;;;6208964;22;20004;-79
2022/12/10 11:46:09;;;;;;;26.02;16.15;;;10.80;97.50;;;;;;6276031;22;20458;-81
2022/12/10 11:48:47;;;;;;;22.85;14.30;;;10.80;97.50;;;;;;6276520;22;20070;-81
2022/12/10 11:51:19;;;;;;;25.02;14.60;;;10.80;97.50;;;;;;6275567;22;20058;-80
2022/12/10 11:54:01;;;;;;;23.38;14.00;;;10.90;97.30;;;;;;6276574;22;20069;-80
2022/12/10 11:56:38;;;;;;;21.98;13.98;;;10.90;97.50;;;;;;6276841;22;20084;-80
2022/12/10 11:59:25;;;;;;;24.35;14.55;;;10.90;97.40;;;;;;6249370;22;20035;-80
2022/12/10 12:02:16;;;;;;;18.98;12.38;;;11.00;97.40;;;;;;6276726;22;20337;-81
2022/12/10 12:05:29;;;;;;;17.20;12.05;;;11.00;97.20;;;;;;6247807;22;20014;-83
2022/12/10 12:08:11;;;;;;;17.15;11.43;;;11.00;97.30;;;;;;6200129;22;20457;-80
2022/12/10 12:10:37;;;;;;;16.15;11.57;;;11.10;97.40;;;;;;6275181;22;20006;-82
2022/12/10 12:13:22;;;;;;;15.98;11.45;;;11.10;97.20;;;;;;6248831;22;20000;-83
2022/12/10 12:16:01;;;;;;;15.23;11.20;;;11.10;97.30;;;;;;6274925;22;19999;-80
2022/12/10 12:18:49;;;;;;;18.75;12.30;;;11.10;97.30;;;;;;6275154;22;20003;-82
2022/12/10 12:21:16;;;;;;;17.20;11.88;;;11.20;97.30;;;;;;6275217;22;20024;-82
2022/12/10 12:23:42;;;;;;;17.17;12.60;;;11.20;97.40;;;;;;6276338;22;20004;-82
2022/12/10 12:26:48;;;;;;;16.35;11.65;;;11.30;97.10;;;;;;6276499;22;20015;-76
2022/12/10 12:29:40;;;;;;;18.65;12.25;;;11.30;97.10;;;;;;6274410;22;20004;-77
2022/12/10 12:32:12;;;;;;;16.05;11.30;;;11.40;97.20;;;;;;6233021;22;20015;-75
2022/12/10 12:34:58;;;;;;;17.27;12.73;;;11.40;97.20;;;;;;6248130;22;20284;-76
2022/12/10 12:37:32;;;;;;;15.82;11.52;;;11.50;97.10;;;;;;6275002;22;20031;-76
2022/12/10 12:40:12;;;;;;;15.82;11.10;;;11.50;97.10;;;;;;6247785;22;20007;-83
2022/12/10 12:42:54;;;;;;;16.98;12.43;;;11.50;97.10;;;;;;6248354;22;20326;-84
2022/12/10 12:45:28;;;;;;;13.63;10.43;;;11.50;96.90;;;;;;6274885;22;20023;-83
2022/12/10 12:48:04;;;;;;;18.05;12.60;;;11.50;97.00;;;;;;6274171;22;20071;-80
2022/12/10 12:50:33;;;;;;;17.40;13.30;;;11.50;96.90;;;;;;6273299;22;20104;-85
2022/12/10 12:53:00;;;;;;;15.27;11.52;;;11.50;96.60;;;;;;6274103;22;20000;-77
2022/12/10 12:56:04;;;;;;;15.27;10.98;;;11.40;96.90;;;;;;6274410;22;19996;-77
2022/12/10 12:58:44;;;;;;;16.63;12.07;;;11.50;96.80;;;;;;6274390;22;19999;-77
2022/12/10 13:01:22;;;;;;;17.45;11.57;;;11.50;96.90;;;;;;6247967;22;20014;-76
2022/12/10 13:03:50;;;;;;;18.25;12.02;;;11.50;96.90;;;;;;6274700;22;19999;-77